Time;durP1;ratioP1;P1;durP2;ratioP2;P2;SDS_P1;SDS_P2;PMS_P1;PMS_P2;Temp;Humidity;BMP_temperature;BMP_pressure;BME280_temperature;BME280_humidity;BME280_pressure;Samples;Min_cycle;Max_cycle;Signal;HPM_P1;HPM_P2
2021/04/20 00:02:12;;;;;;;18.77;11.05;;;;;;;11.18;75.45;100165.03;1827525;78;21071;-60
2021/04/20 00:04:40;;;;;;;20.97;11.93;;;;;;;11.18;75.53;100167.72;1827533;77;21062;-59
2021/04/20 00:07:08;;;;;;;18.77;11.95;;;;;;;11.21;75.50;100167.17;1827602;78;21117;-59
2021/04/20 00:09:36;;;;;;;17.95;11.38;;;;;;;11.20;75.09;100157.38;1809411;78;21376;-59
2021/04/20 00:12:05;;;;;;;16.75;10.65;;;;;;;11.23;74.67;100151.87;1827502;78;21067;-60
2021/04/20 00:14:33;;;;;;;19.00;11.40;;;;;;;11.21;74.41;100145.22;1827648;78;22250;-59
2021/04/20 00:17:01;;;;;;;18.92;11.50;;;;;;;11.23;73.78;100157.23;1827604;78;21161;-59
2021/04/20 00:19:29;;;;;;;18.90;11.63;;;;;;;11.24;74.02;100139.70;1809443;78;21118;-58
2021/04/20 00:21:57;;;;;;;17.77;11.33;;;;;;;11.26;73.87;100130.25;1827559;78;21532;-58
2021/04/20 00:24:24;;;;;;;20.95;12.03;;;;;;;11.25;73.85;100121.80;1827439;78;21138;-57
2021/04/20 00:26:52;;;;;;;23.47;11.05;;;;;;;11.24;73.42;100138.36;1827526;78;21106;-59
2021/04/20 00:29:19;;;;;;;17.30;10.95;;;;;;;11.23;73.20;100120.52;1827450;78;21098;-58
2021/04/20 00:31:47;;;;;;;17.35;10.55;;;;;;;11.23;73.03;100112.95;1827583;77;21549;-60
2021/04/20 00:34:14;;;;;;;15.90;10.80;;;;;;;11.24;72.75;100118.72;1827454;78;21355;-58
2021/04/20 00:36:42;;;;;;;17.90;11.12;;;;;;;11.27;72.52;100115.89;1827523;78;21070;-59
2021/04/20 00:39:10;;;;;;;17.77;10.98;;;;;;;11.27;72.67;100103.81;1827521;78;21106;-58
2021/04/20 00:41:37;;;;;;;20.80;11.12;;;;;;;11.28;72.42;100106.44;1827502;77;21098;-58
2021/04/20 00:44:05;;;;;;;16.42;10.25;;;;;;;11.27;71.90;100110.52;1827519;78;21054;-58
2021/04/20 00:46:32;;;;;;;15.53;10.10;;;;;;;11.26;72.02;100102.93;1827497;78;21448;-58
2021/04/20 00:49:00;;;;;;;19.67;10.68;;;;;;;11.25;72.05;100106.55;1827504;78;21074;-58
2021/04/20 00:51:28;;;;;;;16.50;11.55;;;;;;;11.25;72.13;100101.68;1827453;78;21086;-58
2021/04/20 00:53:56;;;;;;;18.73;11.73;;;;;;;11.26;72.21;100114.16;1825137;77;21059;-59
2021/04/20 00:56:24;;;;;;;20.37;11.55;;;;;;;11.27;72.16;100078.32;1825061;78;21119;-59
2021/04/20 00:58:52;;;;;;;18.90;11.70;;;;;;;11.27;72.49;100078.32;1829573;78;21356;-59
2021/04/20 01:01:19;;;;;;;17.02;10.63;;;;;;;11.25;72.53;100081.06;1829497;78;21106;-59
2021/04/20 01:03:47;;;;;;;18.65;10.82;;;;;;;11.24;72.73;100073.11;1829576;78;21094;-59
2021/04/20 01:06:15;;;;;;;19.10;10.58;;;;;;;11.21;72.88;100067.41;1829419;78;21047;-59
2021/04/20 01:08:43;;;;;;;19.55;10.98;;;;;;;11.17;72.94;100085.95;1780816;78;21054;-59
2021/04/20 01:11:11;;;;;;;17.35;10.72;;;;;;;11.16;73.23;100102.98;1829644;78;22095;-59
2021/04/20 01:13:39;;;;;;;16.85;10.60;;;;;;;11.12;73.46;100071.41;1829444;78;21118;-58
2021/04/20 01:16:07;;;;;;;19.07;11.03;;;;;;;11.09;73.59;100064.84;1829654;78;21169;-58
2021/04/20 01:18:37;;;;;;;20.00;10.93;;;;;;;11.07;73.75;100061.37;1829500;78;21047;-58
2021/04/20 01:21:11;;;;;;;17.55;11.12;;;;;;;11.04;73.72;100062.38;1829574;78;21161;-59
2021/04/20 01:24:13;;;;;;;19.25;11.28;;;;;;;11.03;73.55;100046.38;1829416;78;21362;-59
2021/04/20 01:26:46;;;;;;;16.30;9.95;;;;;;;11.04;73.45;100056.16;1829513;78;21090;-59
2021/04/20 01:29:14;;;;;;;20.57;10.08;;;;;;;11.01;73.58;100042.90;1829546;78;21063;-58
2021/04/20 01:31:43;;;;;;;17.40;10.20;;;;;;;11.00;73.48;100038.48;1806859;78;21039;-59
2021/04/20 01:34:12;;;;;;;16.10;10.63;;;;;;;10.97;73.42;100056.06;1829574;78;21463;-58
2021/04/20 01:36:40;;;;;;;15.93;10.23;;;;;;;10.98;73.06;100051.10;1829406;78;21352;-58
2021/04/20 01:39:10;;;;;;;17.32;9.85;;;;;;;10.99;72.96;100048.81;1829425;78;21098;-58
2021/04/20 01:41:38;;;;;;;15.70;9.73;;;;;;;11.00;72.87;100035.80;1829446;78;21126;-59
2021/04/20 01:44:06;;;;;;;18.85;10.50;;;;;;;11.00;73.01;100031.28;1829585;78;21459;-58
2021/04/20 01:46:35;;;;;;;20.15;9.98;;;;;;;10.99;73.16;100042.11;1829503;78;21030;-59
2021/04/20 01:49:02;;;;;;;16.57;10.60;;;;;;;10.97;73.43;100021.20;1829667;78;21820;-58
2021/04/20 01:51:30;;;;;;;16.57;10.48;;;;;;;10.94;73.63;100051.70;1829481;78;21709;-60
2021/04/20 01:53:57;;;;;;;18.23;10.85;;;;;;;10.91;73.74;100025.50;1829512;78;21434;-59
2021/04/20 01:56:25;;;;;;;19.57;10.80;;;;;;;10.88;73.73;100024.70;1834612;77;21600;-59
2021/04/20 01:58:53;;;;;;;18.05;9.93;;;;;;;10.87;73.72;100033.69;1859656;77;21130;-59
2021/04/20 02:01:24;;;;;;;17.12;10.65;;;;;;;10.88;73.75;100024.70;1859671;77;21285;-58
2021/04/20 02:03:52;;;;;;;16.12;10.72;;;;;;;10.89;73.70;100020.22;1859562;77;21050;-58
2021/04/20 02:06:23;;;;;;;17.55;10.95;;;;;;;10.89;73.83;100027.78;1826598;77;21098;-59
2021/04/20 02:08:51;;;;;;;17.10;9.80;;;;;;;10.88;74.04;100019.83;1859540;77;21070;-58
2021/04/20 02:11:22;;;;;;;16.42;10.65;;;;;;;10.86;74.19;100029.77;1859716;77;21113;-59
2021/04/20 02:13:50;;;;;;;17.32;10.55;;;;;;;10.86;74.22;100026.59;1859609;77;21350;-59
2021/04/20 02:16:18;;;;;;;16.75;10.68;;;;;;;10.86;74.28;100023.91;1859614;77;21120;-58
2021/04/20 02:18:48;;;;;;;17.77;9.88;;;;;;;10.88;74.31;100016.66;1859691;77;21043;-58
2021/04/20 02:21:17;;;;;;;19.30;10.30;;;;;;;10.89;74.43;100025.59;1859798;77;22315;-58
2021/04/20 02:23:46;;;;;;;16.17;10.48;;;;;;;10.91;73.91;100018.80;1859799;77;21094;-59
2021/04/20 02:26:36;;;;;;;14.07;9.48;;;;;;;10.90;74.54;100009.89;1859592;77;21354;-59
2021/04/20 02:29:06;;;;;;;15.70;10.10;;;;;;;10.87;75.22;100022.97;1859655;77;21066;-60
2021/04/20 02:31:38;;;;;;;15.63;10.05;;;;;;;10.83;75.26;100006.63;1859588;77;21062;-59
2021/04/20 02:34:06;;;;;;;18.05;10.32;;;;;;;10.82;75.02;100010.26;1859682;77;21034;-59
2021/04/20 02:36:44;;;;;;;15.55;9.98;;;;;;;10.80;75.39;100000.08;1859599;77;21062;-58
2021/04/20 02:39:12;;;;;;;17.12;9.78;;;;;;;10.77;75.60;100000.23;1859673;77;21346;-59
2021/04/20 02:41:41;;;;;;;14.73;9.48;;;;;;;10.71;76.94;99996.02;1859547;77;21097;-58
2021/04/20 02:44:09;;;;;;;15.90;10.13;;;;;;;10.65;77.07;99999.46;1859681;77;21117;-58
2021/04/20 02:46:38;;;;;;;18.62;10.65;;;;;;;10.59;77.43;99989.44;1859629;77;21136;-57
2021/04/20 02:49:06;;;;;;;17.52;11.28;;;;;;;10.54;77.88;99983.43;1859608;77;21454;-57
2021/04/20 02:51:34;;;;;;;17.17;10.20;;;;;;;10.49;78.52;100006.02;1859628;77;21655;-58
2021/04/20 02:54:02;;;;;;;14.53;10.08;;;;;;;10.43;79.75;100001.81;1859500;77;21463;-59
2021/04/20 02:56:30;;;;;;;18.00;10.43;;;;;;;10.37;80.13;99980.63;1859652;77;21099;-59
2021/04/20 02:59:03;;;;;;;15.68;9.65;;;;;;;10.29;80.70;99976.52;1859514;77;21126;-58
2021/04/20 03:01:32;;;;;;;22.82;10.40;;;;;;;10.25;81.11;99987.42;1859851;77;21583;-59
2021/04/20 03:04:00;;;;;;;17.98;10.58;;;;;;;10.20;80.90;99982.27;1859591;77;21420;-59
2021/04/20 03:06:27;;;;;;;15.28;9.73;;;;;;;10.17;80.97;99982.42;1859496;77;21138;-59
2021/04/20 03:08:55;;;;;;;18.02;9.85;;;;;;;10.17;81.11;99990.45;1859737;77;21108;-58
2021/04/20 03:11:34;;;;;;;15.95;9.70;;;;;;;10.16;81.54;99973.98;1800459;77;21087;-60
2021/04/20 03:14:06;;;;;;;14.75;10.15;;;;;;;10.14;81.67;99983.90;1859706;77;21056;-59
2021/04/20 03:16:34;;;;;;;18.80;9.88;;;;;;;10.12;81.83;99987.13;1859661;77;21445;-59
2021/04/20 03:19:04;;;;;;;14.90;9.85;;;;;;;10.10;81.70;99980.97;1859566;77;21099;-59
2021/04/20 03:21:32;;;;;;;14.85;9.80;;;;;;;10.10;81.93;99979.63;1859650;77;21107;-58
2021/04/20 03:24:02;;;;;;;19.15;9.98;;;;;;;10.09;82.06;99985.92;1859621;77;21083;-57
2021/04/20 03:26:39;;;;;;;16.23;10.32;;;;;;;10.08;81.78;99990.88;1859597;77;21546;-58
2021/04/20 03:29:09;;;;;;;16.23;10.60;;;;;;;10.08;81.95;99999.77;1859777;77;22189;-58
2021/04/20 03:31:38;;;;;;;21.90;10.10;;;;;;;10.11;81.86;99988.06;1859661;77;21509;-58
2021/04/20 03:34:14;;;;;;;16.65;10.65;;;;;;;10.12;81.88;100003.19;1859620;77;21096;-57
2021/04/20 03:36:47;;;;;;;18.32;9.83;;;;;;;10.12;81.56;99997.83;1859626;77;21028;-57
2021/04/20 03:39:18;;;;;;;16.17;10.05;;;;;;;10.11;82.15;100004.13;1859700;77;21468;-57
2021/04/20 03:42:09;;;;;;;20.43;10.08;;;;;;;10.07;82.31;99986.47;1859723;77;21181;-58
2021/04/20 03:44:45;;;;;;;18.70;10.58;;;;;;;10.04;82.90;99989.66;1859567;77;21882;-57
2021/04/20 03:47:22;;;;;;;18.65;9.95;;;;;;;10.00;83.32;100000.59;1859638;77;20890;-57
2021/04/20 03:49:50;;;;;;;22.00;12.00;;;;;;;9.98;83.64;99991.28;1859565;77;21127;-58
2021/04/20 03:52:23;;;;;;;22.22;11.78;;;;;;;9.97;83.60;100000.25;1827001;77;21103;-57
2021/04/20 03:54:50;;;;;;;14.55;9.55;;;;;;;9.96;84.00;99997.66;1859565;77;21184;-56
2021/04/20 03:57:18;;;;;;;18.35;10.82;;;;;;;9.92;84.59;100011.64;1843500;77;21114;-58
2021/04/20 03:59:46;;;;;;;22.55;11.12;;;;;;;9.89;84.77;100001.92;1829471;78;21070;-58
2021/04/20 04:02:13;;;;;;;19.37;11.15;;;;;;;9.84;85.13;100003.09;1829425;78;21047;-57
2021/04/20 04:04:42;;;;;;;18.37;10.80;;;;;;;9.80;85.85;99997.44;1829662;78;21042;-57
2021/04/20 04:07:12;;;;;;;15.45;10.00;;;;;;;9.75;86.92;99996.33;1829510;78;21374;-57
2021/04/20 04:09:40;;;;;;;14.18;9.48;;;;;;;9.71;86.72;99994.70;1829537;78;21106;-58
2021/04/20 04:12:09;;;;;;;16.40;9.20;;;;;;;9.70;86.86;99991.16;1769861;78;21090;-57
2021/04/20 04:14:36;;;;;;;18.82;11.33;;;;;;;9.71;87.35;100004.95;1829570;78;21163;-57
2021/04/20 04:17:09;;;;;;;14.68;9.75;;;;;;;9.69;86.69;99993.44;1829539;78;21039;-57
2021/04/20 04:19:44;;;;;;;19.50;11.55;;;;;;;9.69;86.85;99990.77;1829572;78;21196;-57
2021/04/20 04:22:28;;;;;;;18.85;9.43;;;;;;;9.74;87.17;99994.10;1873298;76;28084;-56
2021/04/20 04:24:57;;;;;;;17.00;10.30;;;;;;;9.70;87.44;99999.66;1841043;77;20922;-57
2021/04/20 04:27:31;;;;;;;18.87;11.05;;;;;;;9.68;87.51;99988.14;1841150;77;21531;-56
2021/04/20 04:30:09;;;;;;;20.17;10.32;;;;;;;9.66;87.77;99989.56;1840327;78;20933;-56
2021/04/20 04:32:41;;;;;;;21.55;9.93;;;;;;;9.66;88.11;99993.58;1841249;78;21044;-57
2021/04/20 04:35:10;;;;;;;18.20;9.73;;;;;;;9.65;88.34;99984.27;1841012;77;20937;-57
2021/04/20 04:37:39;;;;;;;15.35;9.35;;;;;;;9.64;88.97;99985.20;1841127;78;20937;-57
2021/04/20 04:40:08;;;;;;;16.77;10.50;;;;;;;9.62;89.11;99987.97;1811325;78;21038;-56
2021/04/20 04:42:36;;;;;;;20.27;10.03;;;;;;;9.60;89.44;99984.45;1841026;78;20890;-56
2021/04/20 04:45:08;;;;;;;17.82;10.30;;;;;;;9.58;89.65;99986.33;1841109;78;20942;-57
2021/04/20 04:47:37;;;;;;;16.65;10.28;;;;;;;9.56;90.02;99986.87;1811794;78;21115;-57
2021/04/20 04:50:08;;;;;;;21.93;9.95;;;;;;;9.57;90.32;99977.91;1841109;78;21064;-58
2021/04/20 04:52:36;;;;;;;14.98;9.43;;;;;;;9.57;90.55;99978.79;1841059;78;21323;-57
2021/04/20 04:55:05;;;;;;;16.15;9.60;;;;;;;9.57;90.94;99976.56;1841076;78;21146;-58
2021/04/20 04:57:33;;;;;;;18.52;9.65;;;;;;;9.57;91.55;99976.11;1832891;77;20980;-57
2021/04/20 05:00:06;;;;;;;16.55;9.93;;;;;;;9.56;91.65;99981.06;1828134;78;21034;-57
2021/04/20 05:02:39;;;;;;;19.57;9.80;;;;;;;9.55;92.13;99982.45;1828173;78;21118;-57
2021/04/20 05:05:09;;;;;;;18.05;10.20;;;;;;;9.53;92.28;99982.99;1810238;78;21358;-57
2021/04/20 05:07:36;;;;;;;17.87;10.45;;;;;;;9.50;92.40;99983.98;1828233;78;21494;-57
2021/04/20 05:10:07;;;;;;;15.32;9.43;;;;;;;9.48;92.70;99978.31;1828133;78;20991;-57
2021/04/20 05:12:34;;;;;;;20.72;10.88;;;;;;;9.49;93.35;99978.23;1828246;78;21114;-57
2021/04/20 05:15:12;;;;;;;17.05;9.80;;;;;;;9.47;93.21;99973.41;1828085;78;21110;-58
2021/04/20 05:17:40;;;;;;;16.85;10.23;;;;;;;9.47;93.66;99982.78;1828243;78;21370;-58
2021/04/20 05:20:18;;;;;;;13.95;9.63;;;;;;;9.43;93.67;99984.73;1827979;78;21110;-56
2021/04/20 05:22:46;;;;;;;22.32;9.93;;;;;;;9.42;93.85;99984.78;1809563;78;21126;-57
2021/04/20 05:25:19;;;;;;;19.48;10.80;;;;;;;9.41;94.09;99993.30;1828109;78;21102;-58
2021/04/20 05:27:50;;;;;;;19.35;10.82;;;;;;;9.38;94.43;100002.77;1828394;78;21129;-57
2021/04/20 05:30:19;;;;;;;15.98;10.68;;;;;;;9.36;94.67;99992.59;1828113;78;21396;-57
2021/04/20 05:32:52;;;;;;;16.62;10.58;;;;;;;9.33;95.18;99994.06;1827681;77;21103;-58
2021/04/20 05:35:16;;;;;;;18.90;10.43;;;;;;;9.31;95.72;99990.59;1827256;78;20928;-57
2021/04/20 05:37:44;;;;;;;19.77;11.33;;;;;;;9.28;95.76;99996.08;1827502;78;20924;-58
2021/04/20 05:40:21;;;;;;;17.67;11.35;;;;;;;9.24;96.00;99989.12;1827544;78;21094;-58
2021/04/20 05:42:52;;;;;;;19.23;11.12;;;;;;;9.22;96.22;99996.34;1826951;78;21270;-58
2021/04/20 05:45:21;;;;;;;19.65;11.68;;;;;;;9.22;96.32;99997.67;1827525;78;21025;-58
2021/04/20 05:47:51;;;;;;;19.25;11.12;;;;;;;9.20;96.26;99994.20;1827570;78;20995;-58
2021/04/20 05:50:27;;;;;;;19.95;11.95;;;;;;;9.22;96.25;99996.34;1827531;78;20873;-57
2021/04/20 05:52:57;;;;;;;21.42;11.85;;;;;;;9.23;96.05;99992.73;1827492;78;20908;-58
2021/04/20 05:55:26;;;;;;;18.55;10.88;;;;;;;9.23;96.01;99990.05;1827557;78;21180;-59
2021/04/20 05:57:54;;;;;;;19.70;10.20;;;;;;;9.24;96.09;99999.33;1810681;78;21106;-58
2021/04/20 06:00:24;;;;;;;14.28;9.43;;;;;;;9.25;96.07;100004.23;1787578;80;21319;-59
2021/04/20 06:02:53;;;;;;;17.55;10.03;;;;;;;9.27;95.49;99994.33;1787587;80;21129;-58
2021/04/20 06:05:23;;;;;;;20.72;12.23;;;;;;;9.28;95.04;99994.28;1787720;80;21597;-58
2021/04/20 06:08:00;;;;;;;18.40;10.88;;;;;;;9.28;94.96;100001.42;1787815;80;21615;-58
2021/04/20 06:10:31;;;;;;;23.07;12.75;;;;;;;9.30;95.41;100006.23;1760543;80;22062;-58
2021/04/20 06:12:59;;;;;;;19.55;11.97;;;;;;;9.30;96.02;100006.23;1787649;79;21129;-59
2021/04/20 06:15:26;;;;;;;25.62;13.40;;;;;;;9.29;96.60;100004.50;1787695;80;21098;-59
2021/04/20 06:17:55;;;;;;;18.87;12.18;;;;;;;9.27;96.73;99991.66;1787633;80;21185;-60
2021/04/20 06:20:24;;;;;;;23.67;12.95;;;;;;;9.24;97.09;99997.14;1787693;79;21360;-58
2021/04/20 06:22:55;;;;;;;32.73;13.80;;;;;;;9.22;97.32;100001.69;1784527;79;21172;-58
2021/04/20 06:25:22;;;;;;;26.55;13.60;;;;;;;9.20;97.55;100002.22;1784610;80;21073;-58
2021/04/20 06:27:50;;;;;;;25.23;13.08;;;;;;;9.20;97.99;99998.20;1784531;80;20904;-60
2021/04/20 06:30:22;;;;;;;24.72;14.47;;;;;;;9.21;98.57;100002.63;1784719;79;21058;-58
2021/04/20 06:32:49;;;;;;;29.35;14.45;;;;;;;9.21;98.69;99993.27;1784640;79;22299;-58
2021/04/20 06:35:19;;;;;;;24.55;12.68;;;;;;;9.20;98.87;100005.75;1784597;80;20955;-59
2021/04/20 06:37:52;;;;;;;25.75;14.58;;;;;;;9.20;99.14;100003.56;1784676;80;22019;-58
2021/04/20 06:40:36;;;;;;;25.80;14.18;;;;;;;9.23;99.22;99995.41;1784562;80;20979;-59
2021/04/20 06:43:10;;;;;;;27.35;14.83;;;;;;;9.24;99.32;100005.16;1784610;80;21121;-59
2021/04/20 06:46:02;;;;;;;43.08;17.25;;;;;;;9.23;99.26;99998.93;1784539;80;21362;-58
2021/04/20 06:48:44;;;;;;;31.10;14.58;;;;;;;9.23;99.39;99998.08;1784585;80;20951;-61
2021/04/20 06:51:16;;;;;;;26.55;13.53;;;;;;;9.22;99.52;99993.66;1784532;80;21121;-58
2021/04/20 06:54:01;;;;;;;28.30;14.58;;;;;;;9.22;99.30;99999.02;1784599;80;20983;-59
2021/04/20 06:56:39;;;;;;;28.77;15.38;;;;;;;9.20;99.25;100003.56;1791531;78;21043;-58
2021/04/20 06:59:34;;;;;;;26.52;14.83;;;;;;;9.16;99.60;99998.31;1821909;78;21190;-59
2021/04/20 07:02:33;;;;;;;31.20;14.83;;;;;;;9.15;99.80;99988.55;1821689;78;21150;-58
2021/04/20 07:05:01;;;;;;;28.70;15.03;;;;;;;9.16;99.99;99984.94;1821736;78;21173;-59
2021/04/20 07:07:43;;;;;;;27.98;14.60;;;;;;;9.17;99.78;99992.51;1821935;78;21463;-59
2021/04/20 07:10:21;;;;;;;32.35;14.75;;;;;;;9.19;99.97;99989.78;1821566;78;21523;-58
2021/04/20 07:12:53;;;;;;;26.12;14.03;;;;;;;9.21;99.74;99990.11;1818314;78;21296;-59
2021/04/20 07:15:21;;;;;;;31.73;14.13;;;;;;;9.24;99.59;99984.63;1821944;78;21066;-60
2021/04/20 07:18:29;;;;;;;30.37;15.18;;;;;;;9.29;99.47;99979.97;1821828;78;21044;-58
2021/04/20 07:21:23;;;;;;;27.15;14.30;;;;;;;9.35;99.48;99977.48;1821796;78;21079;-58
2021/04/20 07:24:14;;;;;;;30.77;15.00;;;;;;;9.47;99.29;99981.44;1822041;78;21496;-57
2021/04/20 07:27:05;;;;;;;27.32;15.80;;;;;;;9.54;97.61;99992.30;1821816;78;21412;-58
2021/04/20 07:30:10;;;;;;;32.95;15.65;;;;;;;9.63;97.43;99994.17;1811895;78;21147;-57
2021/04/20 07:33:08;;;;;;;23.50;14.53;;;;;;;9.69;96.53;99982.73;1788689;78;21085;-58
2021/04/20 07:36:02;;;;;;;27.30;15.20;;;;;;;9.79;95.64;99987.67;1753769;78;22259;-60
2021/04/20 07:38:34;;;;;;;34.00;18.95;;;;;;;9.87;95.76;99981.05;1743778;78;21043;-58
2021/04/20 07:41:08;;;;;;;36.42;18.15;;;;;;;9.95;95.02;99987.41;1835356;76;21193;-59
2021/04/20 07:44:05;;;;;;;40.67;18.60;;;;;;;10.00;95.09;99992.08;1826077;76;21366;-59
2021/04/20 07:46:42;;;;;;;33.05;17.05;;;;;;;10.08;95.08;99990.88;1826758;78;21166;-59
2021/04/20 07:49:18;;;;;;;32.60;15.65;;;;;;;10.15;93.95;99984.30;1824352;78;21499;-58
2021/04/20 07:52:07;;;;;;;25.80;14.30;;;;;;;10.21;93.57;99981.81;1832804;78;21088;-60
2021/04/20 07:54:46;;;;;;;31.35;16.40;;;;;;;10.27;92.71;99986.39;1809249;78;21185;-59
2021/04/20 07:57:25;;;;;;;27.50;15.23;;;;;;;10.34;92.03;99979.44;1831928;78;21122;-59
2021/04/20 08:00:15;;;;;;;29.63;15.10;;;;;;;10.40;91.69;99984.50;1824224;78;20991;-59
2021/04/20 08:03:33;;;;;;;21.20;12.88;;;;;;;10.46;91.09;99996.30;1805593;78;21109;-59
2021/04/20 08:06:16;;;;;;;28.95;15.45;;;;;;;10.50;90.43;99988.55;1823945;78;21208;-60
2021/04/20 08:08:58;;;;;;;34.70;21.23;;;;;;;10.56;90.52;99986.02;1824218;78;21370;-59
2021/04/20 08:11:39;;;;;;;26.10;16.02;;;;;;;10.60;89.71;99992.97;1794582;78;21101;-58
2021/04/20 08:14:27;;;;;;;35.55;20.52;;;;;;;10.63;89.90;99982.58;1824229;78;20984;-60
2021/04/20 08:17:15;;;;;;;26.70;14.38;;;;;;;10.68;89.81;99981.88;1824157;78;21134;-60
2021/04/20 08:19:48;;;;;;;30.30;17.62;;;;;;;10.72;89.41;99996.88;1824251;78;21098;-60
2021/04/20 08:22:16;;;;;;;31.27;16.17;;;;;;;10.80;89.19;99984.45;1824092;78;21201;-61
2021/04/20 08:25:08;;;;;;;38.55;19.02;;;;;;;10.85;89.15;99989.99;1824158;77;21003;-60
2021/04/20 08:27:50;;;;;;;28.45;15.05;;;;;;;10.91;89.26;99987.95;1824199;78;21109;-58
2021/04/20 08:30:40;;;;;;;36.73;16.67;;;;;;;10.99;89.59;99980.42;1824129;78;21482;-58
2021/04/20 08:33:23;;;;;;;31.75;16.65;;;;;;;11.11;89.30;99987.84;1824234;78;21212;-59
2021/04/20 08:35:54;;;;;;;27.55;15.72;;;;;;;11.21;87.29;99998.14;1824152;77;21188;-58
2021/04/20 08:38:53;;;;;;;25.37;15.85;;;;;;;11.25;86.78;99990.33;1824278;78;21146;-60
2021/04/20 08:41:56;;;;;;;31.75;15.35;;;;;;;11.28;86.58;99984.80;1824259;78;21221;-59
2021/04/20 08:44:30;;;;;;;30.45;18.15;;;;;;;11.36;85.98;99987.95;1824136;78;21161;-60
2021/04/20 08:47:18;;;;;;;41.05;20.05;;;;;;;11.44;85.06;100003.22;1824270;78;21130;-58
2021/04/20 08:49:58;;;;;;;28.55;18.17;;;;;;;11.49;84.33;99996.73;1824116;78;21247;-59
2021/04/20 08:52:53;;;;;;;27.77;17.80;;;;;;;11.52;83.16;99997.92;1824124;78;21055;-59
2021/04/20 08:55:53;;;;;;;;;;;;;;;11.54;82.33;100002.73;1826936;78;21630;-60
2021/04/20 08:59:00;;;;;;;28.60;17.55;;;;;;;11.54;81.20;100010.33;1839643;77;20211;-59
2021/04/20 09:01:50;;;;;;;31.07;18.45;;;;;;;11.55;80.72;100000.44;1840227;78;21040;-58
2021/04/20 09:04:57;;;;;;;35.73;20.82;;;;;;;11.58;81.51;99994.91;1839881;78;21356;-58
2021/04/20 09:07:34;;;;;;;35.50;19.48;;;;;;;11.63;82.20;100007.65;1840075;78;21131;-58
2021/04/20 09:10:13;;;;;;;33.88;19.55;;;;;;;11.69;81.59;99996.59;1840281;78;21032;-57
2021/04/20 09:12:41;;;;;;;39.00;19.20;;;;;;;11.70;81.65;99996.98;1840239;78;21036;-58
2021/04/20 09:15:11;;;;;;;51.28;30.15;;;;;;;11.74;82.03;100010.63;1784272;78;21064;-59
2021/04/20 09:17:51;;;;;;;37.85;20.10;;;;;;;11.79;81.45;100009.52;1840184;78;21349;-57
2021/04/20 09:20:42;;;;;;;32.42;18.10;;;;;;;11.81;81.13;100017.91;1839492;78;21064;-58
2021/04/20 09:23:51;;;;;;;31.52;17.37;;;;;;;11.82;81.13;100012.05;1844031;77;21040;-57
2021/04/20 09:26:45;;;;;;;34.95;21.17;;;;;;;11.83;80.87;100004.41;1817427;76;21481;-57
2021/04/20 09:29:43;;;;;;;40.15;22.80;;;;;;;11.89;81.50;100004.08;1822810;77;21120;-58
2021/04/20 09:32:18;;;;;;;45.67;27.37;;;;;;;11.91;81.56;100008.89;1824752;77;21680;-58
2021/04/20 09:34:50;;;;;;;53.13;33.10;;;;;;;11.92;81.74;100015.12;1819795;77;21173;-59
2021/04/20 09:37:19;;;;;;;41.63;23.60;;;;;;;11.92;81.81;100024.06;1828369;77;21066;-58
2021/04/20 09:39:50;;;;;;;49.13;26.95;;;;;;;11.95;81.80;100021.20;1838857;77;21076;-59
2021/04/20 09:42:18;;;;;;;59.80;32.13;;;;;;;11.95;81.25;100017.18;1825529;77;21131;-57
2021/04/20 09:45:14;;;;;;;40.17;23.38;;;;;;;11.93;81.58;100011.48;1761260;77;22187;-57
2021/04/20 09:47:50;;;;;;;53.13;28.90;;;;;;;11.90;81.66;100007.16;1827191;77;21155;-57
2021/04/20 09:50:34;;;;;;;43.68;24.47;;;;;;;11.98;81.89;100012.98;1815348;77;21179;-59
2021/04/20 09:53:27;;;;;;;31.60;18.73;;;;;;;12.07;81.23;100013.01;1833812;77;21124;-57
2021/04/20 09:56:37;;;;;;;39.98;20.20;;;;;;;12.14;80.58;100018.93;1805465;77;21119;-58
2021/04/20 09:59:14;;;;;;;44.15;26.15;;;;;;;12.21;80.27;100019.48;1716714;83;21412;-57
2021/04/20 10:02:00;;;;;;;39.10;22.17;;;;;;;12.40;79.99;100006.78;1853516;76;28559;-57
2021/04/20 10:05:05;;;;;;;32.35;19.57;;;;;;;12.46;78.59;100014.96;1818617;78;21159;-58
2021/04/20 10:08:01;;;;;;;40.25;19.67;;;;;;;12.52;75.95;100020.48;1818698;78;21317;-59
2021/04/20 10:10:57;;;;;;;39.50;23.62;;;;;;;12.55;76.59;100014.48;1825024;78;20930;-58
2021/04/20 10:13:34;;;;;;;44.60;22.30;;;;;;;12.64;76.30;100033.73;1822474;78;21974;-59
2021/04/20 10:16:32;;;;;;;40.78;23.77;;;;;;;12.67;75.33;100025.49;1829306;78;21048;-59
2021/04/20 10:19:39;;;;;;;42.85;24.63;;;;;;;12.65;75.40;100015.30;1808041;78;21159;-59
2021/04/20 10:22:42;;;;;;;28.80;16.87;;;;;;;12.69;75.33;100026.27;1821006;78;21190;-57
2021/04/20 10:25:37;;;;;;;28.07;16.05;;;;;;;12.75;74.04;100023.27;1819842;78;21496;-59
2021/04/20 10:28:22;;;;;;;26.05;15.58;;;;;;;12.83;73.89;100021.00;1807845;79;21009;-58
2021/04/20 10:30:52;;;;;;;28.35;17.32;;;;;;;12.95;73.80;100028.00;1808150;79;21512;-59
2021/04/20 10:33:22;;;;;;;33.67;19.70;;;;;;;13.02;72.15;100024.85;1808128;79;21049;-58
2021/04/20 10:35:55;;;;;;;30.32;17.95;;;;;;;13.08;71.80;100033.55;1808161;79;21593;-59
2021/04/20 10:38:27;;;;;;;28.07;18.52;;;;;;;13.12;71.77;100031.92;1807946;79;20949;-58
2021/04/20 10:40:54;;;;;;;42.98;26.02;;;;;;;13.17;70.28;100039.28;1807400;79;21024;-57
2021/04/20 10:43:24;;;;;;;42.48;19.65;;;;;;;13.24;70.79;100032.19;1808024;79;21108;-58
2021/04/20 10:45:52;;;;;;;28.10;16.02;;;;;;;13.31;70.04;100042.98;1778951;79;21181;-59
2021/04/20 10:48:24;;;;;;;31.48;18.42;;;;;;;13.36;68.96;100038.19;1807963;79;21180;-58
2021/04/20 10:50:54;;;;;;;33.02;17.35;;;;;;;13.39;69.09;100028.62;1807994;79;21199;-57
2021/04/20 10:53:28;;;;;;;33.78;21.27;;;;;;;13.48;69.27;100037.98;1778789;79;21559;-58
2021/04/20 10:56:12;;;;;;;27.48;18.60;;;;;;;13.57;69.10;100028.50;1807889;79;20932;-57
2021/04/20 10:58:49;;;;;;;25.17;14.90;;;;;;;13.66;67.97;100036.05;1808012;79;21064;-58
2021/04/20 11:01:20;;;;;;;28.25;14.25;;;;;;;13.71;67.00;100036.64;1811511;79;21137;-58
2021/04/20 11:03:49;;;;;;;41.75;21.30;;;;;;;13.78;67.28;100047.03;1813821;79;21605;-58
2021/04/20 11:07:17;;;;;;;38.67;23.50;;;;;;;13.86;66.10;100034.00;1813719;79;21187;-58
2021/04/20 11:09:48;;;;;;;35.35;18.60;;;;;;;13.96;65.77;100040.55;1824503;77;21191;-58
2021/04/20 11:12:19;;;;;;;26.35;15.58;;;;;;;14.11;64.46;100046.83;1830680;77;21138;-57
2021/04/20 11:14:50;;;;;;;26.45;16.67;;;;;;;14.17;62.94;100048.28;1833089;77;22254;-59
2021/04/20 11:17:43;;;;;;;22.52;12.70;;;;;;;14.22;63.58;100045.31;1835402;77;21175;-57
2021/04/20 11:20:16;;;;;;;20.17;12.20;;;;;;;14.29;62.17;100056.98;1762292;80;21121;-53
2021/04/20 11:22:51;;;;;;;31.20;12.07;;;;;;;14.27;62.32;100045.42;1782950;80;21168;-53
2021/04/20 11:25:43;;;;;;;33.75;12.78;;;;;;;14.28;61.57;100064.69;1780275;80;21179;-54
2021/04/20 11:28:52;;;;;;;20.92;11.50;;;;;;;14.25;60.94;100064.84;1768776;80;21458;-53
2021/04/20 11:31:28;;;;;;;18.67;11.20;;;;;;;14.17;59.97;100095.45;1770079;80;20943;-54
2021/04/20 11:34:24;;;;;;;25.35;11.65;;;;;;;14.07;59.33;100079.47;1768456;80;21576;-52
2021/04/20 11:37:05;;;;;;;22.27;10.65;;;;;;;14.04;59.66;100062.99;1769179;80;21215;-52
2021/04/20 11:39:41;;;;;;;25.25;11.28;;;;;;;14.10;59.90;100056.38;1770310;80;21141;-53
2021/04/20 11:42:14;;;;;;;19.27;9.85;;;;;;;14.08;59.35;100068.58;1776759;80;21196;-52
2021/04/20 11:44:49;;;;;;;24.67;12.37;;;;;;;14.02;58.88;100078.39;1773119;80;21603;-53
2021/04/20 11:47:17;;;;;;;20.35;12.35;;;;;;;14.00;59.82;100065.00;1772533;80;21113;-55
2021/04/20 11:49:57;;;;;;;29.00;12.85;;;;;;;14.08;58.73;100065.03;1774960;80;21065;-54
2021/04/20 11:52:29;;;;;;;20.40;12.20;;;;;;;14.10;57.72;100071.20;1769917;80;21619;-53
2021/04/20 11:55:06;;;;;;;29.80;13.20;;;;;;;14.09;57.83;100073.51;1755615;81;21373;-54
2021/04/20 11:57:38;;;;;;;21.93;11.20;;;;;;;14.08;58.25;100060.98;1775156;80;21557;-52